Time;durP1;ratioP1;P1;durP2;ratioP2;P2;SDS_P1;SDS_P2;PMS_P1;PMS_P2;Temp;Humidity;BMP_temperature;BMP_pressure;BME280_temperature;BME280_humidity;BME280_pressure;Samples;Min_cycle;Max_cycle;Signal;HPM_P1;HPM_P2
2023/03/04 07:35:04;;;;;;;3.27;0.87;;;7.60;99.90;10.60;102481.00;;;;6319988;22;20209;-69
2023/03/04 07:37:47;;;;;;;0.20;0.20;;;7.80;99.90;10.30;102481.00;;;;6226548;22;1617356;-69
2023/03/04 07:40:26;;;;;;;0.20;0.20;;;7.90;99.90;9.60;102502.00;;;;6251279;22;20165;-69
2023/03/04 07:43:03;;;;;;;1.13;1.13;;;7.70;99.90;10.20;102511.00;;;;6250902;22;20262;-69
2023/03/04 07:45:49;;;;;;;0.20;0.20;;;7.80;99.90;10.20;102423.00;;;;6250822;22;20175;-69
2023/03/04 07:48:36;;;;;;;0.20;0.20;;;7.80;99.90;9.90;102418.00;;;;6229015;22;20166;-69
2023/03/04 07:51:24;;;;;;;0.20;0.20;;;7.70;99.90;10.00;102506.00;;;;6276475;22;20239;-69
2023/03/04 07:54:07;;;;;;;0.20;0.20;;;7.70;99.90;10.10;102448.00;;;;6276784;22;20145;-69
2023/03/04 07:56:38;;;;;;;0.20;0.20;;;7.90;99.90;10.40;102521.00;;;;6251559;22;20160;-69
2023/03/04 07:59:09;;;;;;;0.20;0.20;;;7.90;99.90;10.50;102527.00;;;;6276910;22;20137;-69
2023/03/04 08:01:37;;;;;;;0.20;0.20;;;8.00;99.90;11.20;102512.00;;;;6275566;22;20138;-69
2023/03/04 08:04:13;;;;;;;0.20;0.20;;;8.30;99.90;11.10;102518.00;;;;6275873;22;20168;-69
2023/03/04 08:06:40;;;;;;;0.20;0.20;;;8.30;99.90;10.50;102528.00;;;;6277787;22;20203;-69
2023/03/04 08:09:26;;;;;;;0.20;0.20;;;8.20;99.90;11.20;102507.00;;;;6276594;22;20166;-69
2023/03/04 08:12:30;;;;;;;0.20;0.20;;;8.30;99.90;11.30;102547.00;;;;6250994;22;20210;-69
2023/03/04 08:15:16;;;;;;;0.40;0.40;;;8.60;99.90;11.50;102536.00;;;;6277187;22;20168;-70
2023/03/04 08:18:12;;;;;;;0.20;0.20;;;8.60;99.90;11.10;102556.00;;;;6278071;22;20141;-66
2023/03/04 08:21:18;;;;;;;0.23;0.23;;;8.60;99.90;11.40;102553.00;;;;6250466;22;20161;-68
2023/03/04 08:24:06;;;;;;;0.93;0.93;;;8.60;99.90;10.50;102542.00;;;;6250852;22;20590;-68
2023/03/04 08:26:55;;;;;;;0.40;0.40;;;8.40;99.90;10.90;102531.00;;;;6276029;22;20604;-69
2023/03/04 08:29:42;;;;;;;0.40;0.40;;;8.30;99.90;10.80;102527.00;;;;6258000;22;20568;-69
2023/03/04 08:32:08;;;;;;;0.30;0.30;;;8.30;99.90;10.90;102536.00;;;;6276809;22;20225;-67
2023/03/04 08:34:47;;;;;;;0.20;0.20;;;8.50;99.90;10.40;102517.00;;;;6275155;22;20164;-67
2023/03/04 08:37:39;;;;;;;0.27;0.27;;;8.20;99.90;11.00;102526.00;;;;6274997;22;20204;-68
2023/03/04 08:40:18;;;;;;;0.77;0.77;;;8.40;99.90;11.30;102453.00;;;;6270557;22;20162;-65
2023/03/04 08:42:47;;;;;;;0.30;0.30;;;8.60;99.90;10.90;102534.00;;;;6274683;22;20503;-65
2023/03/04 08:45:36;;;;;;;0.20;0.20;;;8.60;99.90;11.00;102522.00;;;;6273217;22;20141;-65
2023/03/04 08:48:31;;;;;;;0.30;0.30;;;8.60;99.90;11.20;102523.00;;;;6274734;22;20149;-63
2023/03/04 08:51:37;;;;;;;0.20;0.20;;;8.50;99.90;11.30;102529.00;;;;6250467;22;20168;-63
2023/03/04 08:54:23;;;;;;;0.20;0.20;;;8.70;99.90;11.30;102535.00;;;;6274299;22;20165;-64
2023/03/04 08:57:27;;;;;;;0.77;0.77;;;8.70;99.90;11.50;102452.00;;;;6276478;22;20130;-64
2023/03/04 09:00:47;;;;;;;0.30;0.30;;;8.80;99.90;11.00;102457.00;;;;6253323;22;20167;-64
2023/03/04 09:03:54;;;;;;;0.30;0.30;;;8.70;99.90;11.50;102535.00;;;;6251302;22;20200;-64
2023/03/04 09:06:25;;;;;;;0.20;0.20;;;8.90;99.90;11.80;102449.00;;;;6272049;22;20168;-64
2023/03/04 09:09:32;;;;;;;0.77;0.77;;;9.00;99.90;12.20;102530.00;;;;6275476;22;20156;-64
2023/03/04 09:12:36;;;;;;;0.33;0.33;;;9.20;99.90;11.70;102460.00;;;;6270035;22;20160;-64
2023/03/04 09:15:46;;;;;;;0.20;0.20;;;9.10;99.90;11.90;102533.00;;;;6272797;22;20163;-64
2023/03/04 09:19:00;;;;;;;0.40;0.40;;;9.00;99.90;11.90;102539.00;;;;6275172;22;20161;-64
2023/03/04 09:22:06;;;;;;;0.30;0.30;;;9.10;99.90;11.90;102453.00;;;;6275865;22;20182;-64
2023/03/04 09:25:16;;;;;;;0.20;0.20;;;9.20;99.90;11.60;102539.00;;;;6275117;22;20168;-65
2023/03/04 09:28:30;;;;;;;0.60;0.40;;;9.00;99.90;11.90;102533.00;;;;6253791;22;20155;-65
2023/03/04 09:31:43;;;;;;;0.20;0.20;;;9.10;99.90;12.00;102537.00;;;;6262419;22;20157;-65
2023/03/04 09:34:47;;;;;;;0.83;0.83;;;9.30;99.90;12.00;102486.00;;;;6275229;22;20205;-65
2023/03/04 09:37:38;;;;;;;0.50;0.50;;;9.30;99.90;11.90;102479.00;;;;6277169;22;20165;-65
2023/03/04 09:40:39;;;;;;;0.40;0.40;;;9.20;99.90;12.20;102537.00;;;;6250077;22;20166;-65
2023/03/04 09:43:55;;;;;;;1.60;1.37;;;9.40;99.90;12.10;102535.00;;;;6275533;22;20178;-65
2023/03/04 09:46:47;;;;;;;0.20;0.20;;;9.40;99.90;12.50;102545.00;;;;6275122;22;20136;-65
2023/03/04 09:50:13;;;;;;;0.20;0.20;;;9.60;99.90;12.10;102544.00;;;;6275534;22;20230;-65
2023/03/04 09:52:57;;;;;;;0.20;0.20;;;9.70;99.90;12.20;102540.00;;;;6256647;22;20145;-65
2023/03/04 09:56:27;;;;;;;0.30;0.30;;;9.60;99.90;12.00;102547.00;;;;6277117;22;20138;-65
2023/03/04 09:59:11;;;;;;;0.30;0.30;;;9.50;99.90;11.10;102530.00;;;;6070093;23;20160;-65
2023/03/04 10:02:17;;;;;;;0.20;0.20;;;9.20;99.90;11.70;102425.00;;;;6094221;23;20171;-65
2023/03/04 10:05:27;;;;;;;0.20;0.20;;;9.00;99.90;12.20;102489.00;;;;6155481;23;20163;-65
2023/03/04 10:08:44;;;;;;;0.70;0.70;;;9.50;99.90;11.80;102533.00;;;;6157347;23;20165;-65
2023/03/04 10:11:40;;;;;;;0.20;0.20;;;9.50;99.90;12.30;102529.00;;;;6182870;23;20502;-65
2023/03/04 10:14:37;;;;;;;0.20;0.20;;;9.50;99.90;12.90;102536.00;;;;6157082;23;20494;-65
2023/03/04 10:17:39;;;;;;;0.27;0.27;;;9.90;99.90;12.30;102545.00;;;;6276069;22;20161;-65
2023/03/04 10:20:24;;;;;;;0.20;0.20;;;9.70;99.90;12.20;102550.00;;;;6249632;22;20474;-65
2023/03/04 10:34:14;;;;;;;0.30;0.30;;;8.80;99.90;12.00;102534.00;;;;5163996;27;20503;-63
2023/03/04 10:37:18;;;;;;;0.30;0.30;;;9.40;99.90;12.20;102487.00;;;;5097306;28;20199;-64
2023/03/04 10:40:17;;;;;;;0.20;0.20;;;9.80;99.90;10.90;102510.00;;;;5099009;28;20255;-64
2023/03/04 10:43:38;;;;;;;0.10;0.10;;;9.20;99.90;11.80;102498.00;;;;5090166;28;20195;-64
2023/03/04 10:46:45;;;;;;;0.10;0.10;;;9.50;99.90;13.50;102514.00;;;;5098415;28;20225;-64
2023/03/04 10:49:52;;;;;;;0.10;0.10;;;10.60;99.90;13.10;102527.00;;;;5098383;28;20288;-64
2023/03/04 10:52:39;;;;;;;0.20;0.20;;;11.00;99.90;13.80;102525.00;;;;5101098;28;20210;-64
2023/03/04 10:55:49;;;;;;;0.50;0.50;;;11.20;99.90;13.90;102532.00;;;;5086059;28;20211;-64
2023/03/04 10:59:17;;;;;;;1.73;1.07;;;11.50;99.90;13.80;102541.00;;;;5090087;28;20199;-64
2023/03/04 11:02:21;;;;;;;0.30;0.30;;;11.40;99.90;14.30;102539.00;;;;5100654;28;20583;-64
2023/03/04 11:05:24;;;;;;;0.20;0.20;;;11.40;99.90;13.30;102488.00;;;;5091072;28;20217;-64
2023/03/04 11:08:23;;;;;;;0.27;0.27;;;11.20;99.90;13.80;102543.00;;;;5107043;28;20189;-64
2023/03/04 11:12:13;;;;;;;0.23;0.23;;;11.20;99.90;13.30;102551.00;;;;5094620;28;20636;-64
2023/03/04 11:15:26;;;;;;;0.93;0.93;;;10.80;99.90;13.80;102546.00;;;;5064101;28;20576;-64
2023/03/04 11:18:26;;;;;;;0.20;0.20;;;10.80;99.90;12.80;102549.00;;;;5048060;28;20265;-65
2023/03/04 11:21:24;;;;;;;0.30;0.30;;;10.90;99.90;13.80;102488.00;;;;5035511;28;20196;-64
2023/03/04 11:24:29;;;;;;;0.20;0.20;;;10.80;99.90;13.40;102548.00;;;;5067397;28;20264;-64
2023/03/04 11:27:37;;;;;;;0.10;0.10;;;10.90;99.90;13.60;102533.00;;;;5090351;28;20197;-66
2023/03/04 11:30:38;;;;;;;0.20;0.20;;;10.70;99.90;13.50;102527.00;;;;5102059;28;20591;-64
2023/03/04 11:33:34;;;;;;;0.20;0.20;;;10.80;99.90;14.00;102524.00;;;;5093024;28;20225;-64
2023/03/04 11:36:56;;;;;;;0.83;0.83;;;10.90;99.90;12.50;102548.00;;;;5101363;28;20762;-66
2023/03/04 11:40:00;;;;;;;0.30;0.30;;;10.80;99.90;12.80;102512.00;;;;5105579;28;20195;-66
2023/03/04 11:42:59;;;;;;;0.10;0.10;;;10.50;99.90;12.30;102520.00;;;;5091432;28;20596;-66
2023/03/04 11:46:00;;;;;;;0.20;0.20;;;10.40;99.90;12.80;102501.00;;;;5083831;28;20263;-65
2023/03/04 11:48:52;;;;;;;0.30;0.30;;;10.30;99.90;12.80;102513.00;;;;5075612;28;20195;-63
2023/03/04 11:51:36;;;;;;;0.20;0.20;;;10.50;99.90;12.60;102427.00;;;;5087802;28;20574;-64
2023/03/04 11:55:01;;;;;;;0.30;0.30;;;10.40;99.90;12.40;102502.00;;;;5086096;28;20329;-66
2023/03/04 11:58:00;;;;;;;0.20;0.20;;;10.20;99.90;12.50;102475.00;;;;5015932;28;20224;-66
2023/03/04 12:01:15;;;;;;;0.20;0.20;;;10.00;99.90;12.70;102462.00;;;;5033443;28;20198;-63
2023/03/04 12:04:28;;;;;;;0.20;0.20;;;10.10;99.90;13.50;102467.00;;;;5027433;28;20206;-66
2023/03/04 12:07:36;;;;;;;1.83;1.83;;;10.70;99.90;13.30;102459.00;;;;5015436;28;20195;-63
2023/03/04 12:10:42;;;;;;;1.20;1.13;;;10.80;99.90;13.80;102461.00;;;;5007724;28;20226;-63
2023/03/04 12:13:51;;;;;;;0.30;0.30;;;11.00;99.90;13.20;102473.00;;;;4996502;28;20215;-63
2023/03/04 12:16:47;;;;;;;0.20;0.20;;;11.10;99.90;12.60;102458.00;;;;4978487;28;20194;-65
2023/03/04 12:19:48;;;;;;;0.20;0.20;;;10.60;99.90;12.30;102428.00;;;;5006263;28;20196;-65
2023/03/04 12:22:35;;;;;;;1.30;1.17;;;10.00;99.90;12.70;102382.00;;;;5032455;28;20203;-65
2023/03/04 12:25:33;;;;;;;0.20;0.20;;;10.30;99.90;13.10;102413.00;;;;5032414;28;20194;-65
2023/03/04 12:28:57;;;;;;;0.50;0.50;;;10.70;99.90;13.70;102419.00;;;;5032933;28;20252;-65
2023/03/04 12:32:15;;;;;;;0.20;0.20;;;10.90;99.90;14.10;102426.00;;;;5007231;28;20218;-65
2023/03/04 12:35:49;;;;;;;0.20;0.20;;;11.40;99.90;14.40;102410.00;;;;5049017;28;20301;-65
2023/03/04 12:38:43;;;;;;;0.10;0.10;;;11.70;99.90;13.70;102427.00;;;;5040338;28;20198;-65
2023/03/04 12:41:44;;;;;;;0.10;0.10;;;11.90;99.90;15.00;102332.00;;;;5036176;28;20188;-65
2023/03/04 12:45:09;;;;;;;0.20;0.20;;;12.20;99.90;15.60;102426.00;;;;5052394;28;20226;-65
2023/03/04 12:48:12;;;;;;;0.40;0.40;;;12.50;99.90;14.60;102435.00;;;;5052359;28;20186;-65
2023/03/04 12:51:02;;;;;;;0.10;0.10;;;12.30;99.90;15.40;102422.00;;;;5052258;28;20256;-64
2023/03/04 12:54:31;;;;;;;0.10;0.10;;;12.60;99.90;14.50;102436.00;;;;5035577;28;20258;-65
2023/03/04 12:57:37;;;;;;;0.20;0.20;;;12.30;99.90;14.80;102437.00;;;;5038191;28;20185;-65
2023/03/04 13:00:59;;;;;;;0.37;0.37;;;12.50;99.90;14.20;102457.00;;;;5035468;28;20184;-65
2023/03/04 13:03:57;;;;;;;0.10;0.10;;;12.40;99.90;13.90;102443.00;;;;5052221;28;20641;-65
2023/03/04 13:07:23;;;;;;;0.10;0.10;;;11.80;99.90;12.50;102442.00;;;;5051839;28;20191;-65
2023/03/04 13:10:24;;;;;;;0.30;0.30;;;11.10;99.90;12.60;102367.00;;;;5066204;28;20229;-65
2023/03/04 13:13:21;;;;;;;0.27;0.27;;;10.70;99.90;12.70;102405.00;;;;5058878;28;20223;-65
2023/03/04 13:16:16;;;;;;;1.00;0.37;;;10.60;99.90;12.00;102385.00;;;;5070814;28;20277;-65
2023/03/04 13:19:49;;;;;;;0.30;0.30;;;10.30;99.90;12.20;102376.00;;;;5069349;28;20204;-66
2023/03/04 13:22:41;;;;;;;0.30;0.30;;;10.40;99.90;12.60;102366.00;;;;5053618;28;20199;-65
2023/03/04 13:25:44;;;;;;;0.17;0.17;;;10.40;99.90;12.90;102362.00;;;;5071565;28;20213;-66
2023/03/04 13:28:42;;;;;;;0.10;0.10;;;10.50;99.90;12.90;102361.00;;;;5025181;28;20655;-65
2023/03/04 13:32:06;;;;;;;0.20;0.20;;;10.60;99.90;14.00;102362.00;;;;5069540;28;20251;-65
2023/03/04 13:34:58;;;;;;;0.30;0.30;;;11.00;99.90;12.80;102341.00;;;;5065668;28;20193;-65
2023/03/04 13:37:32;;;;;;;0.50;0.50;;;10.80;99.90;12.30;102348.00;;;;5034439;28;20202;-65
2023/03/04 13:41:12;;;;;;;0.10;0.10;;;10.70;99.90;12.50;102338.00;;;;5063803;28;20211;-65
2023/03/04 13:44:30;;;;;;;0.20;0.20;;;10.50;99.90;12.00;102335.00;;;;4991728;28;20205;-65
2023/03/04 13:47:21;;;;;;;0.33;0.33;;;10.20;99.90;11.20;102339.00;;;;4975860;28;20196;-65
2023/03/04 13:50:25;;;;;;;0.37;0.37;;;10.00;99.90;11.50;102319.00;;;;5007704;28;20202;-65
2023/03/04 13:53:31;;;;;;;0.20;0.20;;;9.60;99.90;10.50;102319.00;;;;5091856;28;20211;-65
2023/03/04 13:56:25;;;;;;;0.20;0.20;;;9.40;99.90;11.10;102332.00;;;;5074038;28;20201;-65
2023/03/04 13:59:29;;;;;;;0.73;0.67;;;9.30;99.90;11.40;102338.00;;;;5073641;28;20191;-65
2023/03/04 14:02:32;;;;;;;0.20;0.20;;;9.40;99.90;12.20;102339.00;;;;5070984;28;20597;-65
2023/03/04 14:05:23;;;;;;;0.20;0.20;;;9.80;99.90;13.10;102341.00;;;;5085553;28;20206;-65
2023/03/04 14:08:41;;;;;;;0.20;0.20;;;10.30;99.90;13.10;102328.00;;;;5048885;28;20202;-65
2023/03/04 14:12:06;;;;;;;0.43;0.43;;;10.50;99.90;12.30;102324.00;;;;5083601;28;20268;-65
2023/03/04 14:15:02;;;;;;;0.20;0.20;;;10.60;99.90;12.50;102292.00;;;;5067605;28;20297;-65
2023/03/04 14:21:39;;;;;;;0.90;0.40;;;10.30;99.90;11.80;102241.00;;;;5101152;28;20231;-65
2023/03/04 14:24:30;;;;;;;0.20;0.20;;;10.40;99.90;12.10;102296.00;;;;5084618;28;20280;-65
2023/03/04 14:27:25;;;;;;;0.60;0.60;;;10.20;99.90;12.60;102250.00;;;;5082529;28;20189;-65
2023/03/04 14:31:24;;;;;;;3.03;0.40;;;10.40;99.90;11.90;102310.00;;;;5082737;28;20560;-65
2023/03/04 14:34:25;;;;;;;2.83;0.83;;;10.40;99.90;12.10;102267.00;;;;5069372;28;20203;-65
2023/03/04 14:37:42;;;;;;;0.20;0.20;;;10.20;99.90;11.60;102292.00;;;;5085896;28;20180;-65
2023/03/04 14:40:37;;;;;;;0.37;0.37;;;10.00;99.90;12.20;102288.00;;;;5081355;28;20196;-65
2023/03/04 14:43:30;;;;;;;0.20;0.20;;;10.00;99.90;12.70;102289.00;;;;5077242;28;20660;-65
2023/03/04 14:46:26;;;;;;;0.20;0.20;;;10.20;99.90;13.00;102301.00;;;;5052965;28;20207;-65
2023/03/04 14:49:25;;;;;;;0.20;0.20;;;10.60;99.90;12.00;102279.00;;;;5077988;28;20192;-65
2023/03/04 14:52:30;;;;;;;0.40;0.40;;;10.20;99.90;12.00;102284.00;;;;5078554;28;20709;-65
2023/03/04 14:56:00;;;;;;;0.20;0.20;;;10.10;99.90;12.50;102280.00;;;;5077807;28;20762;-65
2023/03/04 14:58:53;;;;;;;0.20;0.20;;;10.10;99.90;12.50;102285.00;;;;5082088;28;20198;-65
2023/03/04 15:02:29;;;;;;;0.20;0.20;;;10.20;99.90;12.50;102279.00;;;;5050437;28;20303;-65
2023/03/04 15:05:34;;;;;;;0.20;0.20;;;10.30;99.90;12.00;102273.00;;;;5037499;28;20670;-65
2023/03/04 15:08:46;;;;;;;0.30;0.30;;;10.30;99.90;11.60;102260.00;;;;5047581;28;20279;-65
2023/03/04 15:12:13;;;;;;;0.20;0.20;;;10.10;99.90;12.90;102266.00;;;;5022820;28;20192;-65
2023/03/04 15:18:41;;;;;;;0.83;0.83;;;10.60;99.90;11.80;102266.00;;;;4971560;28;20259;-65
2023/03/04 15:21:37;;;;;;;0.20;0.20;;;10.30;99.90;12.50;102272.00;;;;4969205;28;20247;-65
2023/03/04 15:24:28;;;;;;;0.10;0.10;;;10.20;99.90;12.00;102194.00;;;;4948439;28;20197;-65
2023/03/04 15:27:23;;;;;;;0.60;0.60;;;10.20;99.90;11.90;102256.00;;;;4959525;28;20234;-64
2023/03/04 15:30:36;;;;;;;1.70;0.87;;;10.10;99.90;12.30;102256.00;;;;4974807;28;20258;-65
2023/03/04 15:33:44;;;;;;;0.40;0.40;;;10.10;99.90;12.10;102240.00;;;;5079074;28;20226;-65
2023/03/04 15:36:40;;;;;;;0.20;0.20;;;10.20;99.90;12.30;102252.00;;;;5088286;28;20282;-65
2023/03/04 15:39:43;;;;;;;0.50;0.50;;;10.10;99.90;12.00;102237.00;;;;5084070;28;20225;-65
2023/03/04 15:42:37;;;;;;;0.37;0.37;;;10.00;99.90;12.20;102243.00;;;;5085357;28;20199;-65
2023/03/04 15:45:37;;;;;;;0.50;0.50;;;10.10;99.90;11.70;102240.00;;;;5077172;28;20342;-65
2023/03/04 15:48:44;;;;;;;0.20;0.20;;;9.90;99.90;11.80;102239.00;;;;5064329;28;20203;-65
2023/03/04 15:52:02;;;;;;;0.20;0.20;;;9.70;99.90;11.90;102241.00;;;;5082837;28;20194;-65
2023/03/04 15:54:39;;;;;;;0.57;0.30;;;9.80;99.90;11.80;102224.00;;;;5028773;28;20621;-65
2023/03/04 15:57:33;;;;;;;0.20;0.20;;;9.80;99.90;11.70;102242.00;;;;5045764;28;20195;-65
2023/03/04 16:00:40;;;;;;;0.40;0.40;;;9.50;99.90;11.80;102241.00;;;;5092670;28;20187;-65
2023/03/04 16:03:46;;;;;;;0.30;0.30;;;9.50;99.90;12.00;102246.00;;;;5092970;28;20297;-65
2023/03/04 16:06:51;;;;;;;0.20;0.20;;;9.70;99.90;12.70;102259.00;;;;5086806;28;20187;-65
2023/03/04 16:09:55;;;;;;;5.53;1.40;;;9.90;99.90;11.90;102236.00;;;;5090556;28;20174;-65
2023/03/04 16:12:53;;;;;;;0.20;0.20;;;9.80;99.90;12.00;102238.00;;;;5089924;28;20219;-65
2023/03/04 16:15:59;;;;;;;0.20;0.20;;;9.80;99.90;13.00;102168.00;;;;5092054;28;20680;-65
2023/03/04 16:19:06;;;;;;;0.50;0.50;;;10.10;99.90;12.50;102239.00;;;;5082889;28;20200;-65
2023/03/04 16:25:24;;;;;;;0.30;0.30;;;9.70;99.90;11.90;102231.00;;;;5088656;28;20236;-65
2023/03/04 16:28:23;;;;;;;0.90;0.53;;;9.60;99.90;11.30;102238.00;;;;5076219;28;20199;-65
2023/03/04 16:31:30;;;;;;;0.50;0.50;;;9.60;99.90;11.70;102224.00;;;;5074818;28;20543;-65
2023/03/04 16:34:39;;;;;;;0.20;0.20;;;9.50;99.90;12.00;102173.00;;;;5074765;28;20197;-64
2023/03/04 16:37:33;;;;;;;0.20;0.20;;;9.60;99.90;11.50;102131.00;;;;5104202;28;20209;-64
2023/03/04 16:40:12;;;;;;;0.20;0.20;;;9.60;99.90;12.20;102223.00;;;;5052595;28;20199;-65
2023/03/04 16:43:35;;;;;;;0.30;0.30;;;9.70;99.90;12.20;102223.00;;;;5084503;28;20207;-64
2023/03/04 16:46:44;;;;;;;0.20;0.20;;;9.80;99.90;12.20;102224.00;;;;5086386;28;20349;-65
2023/03/04 16:49:51;;;;;;;0.43;0.43;;;10.00;99.90;12.10;102208.00;;;;5078999;28;20637;-64
2023/03/04 16:52:43;;;;;;;0.20;0.20;;;9.90;99.90;12.60;102209.00;;;;5076091;28;20559;-65
2023/03/04 16:55:38;;;;;;;0.33;0.30;;;10.00;99.90;11.50;102217.00;;;;4993043;28;20748;-65
2023/03/04 16:58:42;;;;;;;0.20;0.20;;;9.70;99.90;11.90;102222.00;;;;5012460;28;20194;-64
2023/03/04 17:01:55;;;;;;;0.20;0.20;;;9.50;99.90;11.60;102226.00;;;;5081022;28;20217;-65
2023/03/04 17:05:15;;;;;;;0.20;0.20;;;9.50;99.90;11.60;102202.00;;;;5060674;28;20195;-65
2023/03/04 17:08:22;;;;;;;0.50;0.50;;;9.40;99.90;11.50;102231.00;;;;5098934;28;20197;-64
2023/03/04 17:11:48;;;;;;;0.20;0.20;;;9.20;99.90;11.90;102230.00;;;;5073890;28;20191;-65
2023/03/04 17:14:37;;;;;;;0.30;0.30;;;9.40;99.90;11.20;102228.00;;;;5068796;28;20186;-65
2023/03/04 17:17:28;;;;;;;3.83;1.60;;;9.10;99.90;10.70;102205.00;;;;5107332;28;21198;-65
2023/03/04 17:20:07;;;;;;;0.20;0.20;;;9.00;99.90;10.90;102205.00;;;;5079950;28;20594;-65
2023/03/04 17:23:13;;;;;;;0.20;0.20;;;8.90;99.90;10.60;102209.00;;;;5073981;28;20190;-65
2023/03/04 17:26:19;;;;;;;0.27;0.27;;;8.80;99.90;11.70;102226.00;;;;5084702;28;20439;-65
2023/03/04 17:29:26;;;;;;;0.20;0.20;;;8.80;99.90;11.70;102233.00;;;;5067453;28;20281;-64
2023/03/04 17:32:31;;;;;;;0.20;0.20;;;9.20;99.90;12.10;102241.00;;;;5084262;28;20224;-65
2023/03/04 17:35:24;;;;;;;0.87;0.87;;;9.40;99.90;11.20;102246.00;;;;5075686;28;20204;-65
2023/03/04 17:38:14;;;;;;;0.93;0.93;;;9.30;99.90;11.30;102249.00;;;;5035216;28;20195;-65
2023/03/04 17:41:18;;;;;;;0.20;0.20;;;9.00;99.90;11.10;102235.00;;;;5032094;28;20199;-65
2023/03/04 17:44:05;;;;;;;3.77;1.57;;;8.90;99.90;10.80;102240.00;;;;5082479;28;20564;-65
2023/03/04 17:47:26;;;;;;;0.20;0.20;;;8.90;99.90;11.40;102224.00;;;;5083990;28;20655;-65
2023/03/04 17:50:15;;;;;;;0.30;0.30;;;9.00;99.90;10.50;102231.00;;;;5083540;28;20217;-65
2023/03/04 17:53:13;;;;;;;4.03;0.97;;;8.80;99.90;9.80;102234.00;;;;5080792;28;20604;-65
2023/03/04 17:56:29;;;;;;;0.20;0.20;;;8.40;99.90;10.40;102255.00;;;;5078578;28;20559;-65
2023/03/04 17:59:39;;;;;;;0.60;0.60;;;8.50;99.90;10.70;102251.00;;;;5087459;28;20185;-64
2023/03/04 18:02:40;;;;;;;0.20;0.20;;;8.60;99.90;11.40;102256.00;;;;5078392;28;20203;-65
2023/03/04 18:05:45;;;;;;;0.30;0.30;;;8.70;99.90;10.90;102253.00;;;;5085285;28;20267;-64
2023/03/04 18:08:45;;;;;;;0.20;0.20;;;8.80;99.90;10.30;102248.00;;;;5086868;28;20552;-65
2023/03/04 18:11:41;;;;;;;0.30;0.30;;;8.60;99.90;10.00;102252.00;;;;5077517;28;20206;-64
2023/03/04 18:14:49;;;;;;;1.93;1.80;;;8.50;99.90;10.40;102257.00;;;;5077337;28;20211;-64
2023/03/04 18:17:26;;;;;;;0.20;0.20;;;8.20;99.90;10.40;102255.00;;;;5081076;28;20202;-64
2023/03/04 18:20:24;;;;;;;0.20;0.20;;;8.30;99.90;10.70;102252.00;;;;5072207;28;20185;-65
2023/03/04 18:23:22;;;;;;;0.40;0.40;;;8.30;99.90;9.90;102253.00;;;;5081351;28;20183;-66
2023/03/04 18:26:31;;;;;;;0.50;0.50;;;8.40;99.90;10.30;102256.00;;;;5069965;28;20277;-65
2023/03/04 18:29:37;;;;;;;0.20;0.20;;;8.30;99.90;10.40;102240.00;;;;5083079;28;20197;-65
2023/03/04 18:32:46;;;;;;;0.50;0.50;;;8.40;99.90;11.30;102272.00;;;;5081569;28;20316;-65
2023/03/04 18:36:15;;;;;;;10.20;1.50;;;8.70;99.90;11.00;102265.00;;;;5082542;28;20276;-65
2023/03/04 18:39:39;;;;;;;0.20;0.20;;;8.70;99.90;11.70;102202.00;;;;5106613;28;20185;-65
2023/03/04 18:42:31;;;;;;;0.90;0.90;;;8.90;99.90;11.50;102261.00;;;;5088586;28;20184;-65
2023/03/04 18:45:34;;;;;;;0.20;0.20;;;9.10;99.90;11.90;102268.00;;;;4974897;28;20258;-65
2023/03/04 18:48:31;;;;;;;1.67;0.73;;;9.20;99.90;11.40;102281.00;;;;5006842;28;20735;-64
2023/03/04 18:51:28;;;;;;;0.20;0.20;;;9.10;99.90;11.80;102197.00;;;;5001321;28;20298;-65
2023/03/04 18:54:22;;;;;;;0.30;0.30;;;9.20;99.90;11.40;102255.00;;;;4987261;28;20196;-65
2023/03/04 18:57:23;;;;;;;0.20;0.20;;;9.00;99.90;11.40;102275.00;;;;4987166;28;20225;-65
2023/03/04 19:00:18;;;;;;;0.20;0.20;;;9.00;99.90;11.10;102271.00;;;;5008838;28;20717;-65
2023/03/04 19:03:27;;;;;;;0.40;0.40;;;9.00;99.90;11.80;102267.00;;;;5013257;28;20298;-64
2023/03/04 19:06:24;;;;;;;0.30;0.30;;;9.00;99.90;11.80;102217.00;;;;4998077;28;20188;-64
2023/03/04 19:09:19;;;;;;;0.20;0.20;;;9.10;99.90;11.60;102276.00;;;;4997620;28;20251;-65
2023/03/04 19:12:11;;;;;;;0.20;0.20;;;9.10;99.90;11.50;102268.00;;;;4981784;28;20207;-64
2023/03/04 19:15:14;;;;;;;0.20;0.20;;;8.90;99.90;11.10;102274.00;;;;5004023;28;20302;-64
2023/03/04 19:18:41;;;;;;;0.30;0.30;;;8.80;99.90;10.80;102250.00;;;;4992745;28;20195;-64
2023/03/04 19:21:44;;;;;;;0.20;0.20;;;8.50;99.90;11.10;102249.00;;;;5015206;28;20194;-64
2023/03/04 19:24:48;;;;;;;1.07;0.97;;;8.60;99.90;10.30;102248.00;;;;5082744;28;20174;-64
2023/03/04 19:27:46;;;;;;;0.40;0.40;;;8.30;99.90;9.80;102250.00;;;;5069841;28;20193;-64
2023/03/04 19:31:03;;;;;;;0.20;0.20;;;8.30;99.90;10.80;102258.00;;;;5095433;28;20260;-65
2023/03/04 19:34:09;;;;;;;0.20;0.20;;;8.40;99.90;11.10;102255.00;;;;5084259;28;20585;-65
2023/03/04 19:37:18;;;;;;;0.20;0.20;;;8.50;99.90;10.60;102252.00;;;;5082503;28;20260;-65
2023/03/04 19:40:09;;;;;;;0.20;0.20;;;8.70;99.90;10.10;102252.00;;;;5091898;28;20210;-64
2023/03/04 19:43:00;;;;;;;1.20;0.90;;;8.40;99.90;10.40;102245.00;;;;4977429;28;20335;-64
2023/03/04 19:45:58;;;;;;;0.30;0.30;;;8.20;99.90;9.90;102245.00;;;;5099037;28;20258;-65
2023/03/04 19:48:49;;;;;;;0.20;0.20;;;8.30;99.90;10.90;102236.00;;;;5080508;28;20214;-64
2023/03/04 19:51:57;;;;;;;1.13;0.80;;;8.50;99.90;8.60;102221.00;;;;5075761;28;20242;-64
2023/03/04 19:54:46;;;;;;;0.20;0.20;;;7.70;99.90;9.50;102235.00;;;;5079696;28;20193;-64
2023/03/04 19:57:49;;;;;;;0.20;0.20;;;7.60;99.90;9.90;102251.00;;;;5087761;28;20678;-65
2023/03/04 20:00:56;;;;;;;0.20;0.20;;;7.80;99.90;10.20;102247.00;;;;5087271;28;20186;-65
2023/03/04 20:03:55;;;;;;;0.50;0.50;;;8.00;99.90;10.30;102227.00;;;;5070549;28;20284;-64
2023/03/04 20:06:57;;;;;;;0.20;0.20;;;8.10;99.90;10.50;102253.00;;;;5106536;28;20284;-65
2023/03/04 20:09:54;;;;;;;0.20;0.20;;;8.10;99.90;9.70;102246.00;;;;5086593;28;20280;-65
2023/03/04 20:13:02;;;;;;;0.20;0.20;;;8.00;99.90;9.80;102252.00;;;;5084061;28;20694;-64
2023/03/04 20:15:55;;;;;;;0.20;0.20;;;8.00;99.90;10.20;102237.00;;;;5093501;28;20654;-65
2023/03/04 20:18:47;;;;;;;0.20;0.20;;;8.00;99.90;9.90;102248.00;;;;5013366;28;20196;-65
2023/03/04 20:21:41;;;;;;;0.20;0.20;;;8.00;99.90;10.60;102245.00;;;;5013086;28;20195;-65
2023/03/04 20:24:30;;;;;;;0.20;0.20;;;7.90;99.90;10.50;102242.00;;;;5074219;28;20279;-65
2023/03/04 20:27:34;;;;;;;0.20;0.20;;;8.00;99.90;10.90;102251.00;;;;5074293;28;20230;-64
2023/03/04 20:30:38;;;;;;;0.40;0.40;;;8.20;99.90;10.20;102197.00;;;;5067332;28;20556;-65
2023/03/04 20:33:35;;;;;;;0.53;0.53;;;8.10;99.90;10.40;102253.00;;;;5078214;28;20263;-65
2023/03/04 20:36:33;;;;;;;0.20;0.20;;;8.10;99.90;10.80;102256.00;;;;5103437;28;20196;-65
2023/03/04 20:39:40;;;;;;;0.20;0.20;;;8.30;99.90;10.70;102255.00;;;;5080570;28;20227;-65
2023/03/04 20:42:35;;;;;;;0.53;0.53;;;8.30;99.90;10.40;102238.00;;;;5087775;28;20200;-65
2023/03/04 20:49:11;;;;;;;0.30;0.30;;;8.40;99.90;10.00;102236.00;;;;5106539;28;20205;-64
2023/03/04 20:52:07;;;;;;;0.20;0.20;;;8.00;99.90;10.80;102244.00;;;;5085843;28;20662;-64
2023/03/04 20:55:17;;;;;;;0.30;0.30;;;8.10;99.90;10.30;102251.00;;;;5079841;28;20671;-65
2023/03/04 20:58:25;;;;;;;0.20;0.20;;;8.20;99.90;9.50;102239.00;;;;5077354;28;20185;-64
